Time,TemperatureF,DewpointF,PressureIn,WindDirection,WindDirectionDegrees,WindSpeedMPH,WindSpeedGustMPH,Humidity,HourlyPrecipIn,Conditions,Clouds,dailyrainin,SoftwareType,DateUTC
2013-03-07 00:00:00,24.9,22.9,30.25,NNW,333,11.2,25.2,92,0.00,,,0.01,VWS V14.01,2013-03-07 05:00:00,
2013-03-07 00:05:00,25.0,23.0,30.25,NNW,328,4.2,21.0,92,0.00,,,0.00,VWS V14.01,2013-03-07 05:05:00,
2013-03-07 00:10:00,25.0,23.0,30.26,NW,325,4.2,21.0,92,0.00,,,0.00,VWS V14.01,2013-03-07 05:10:00,
2013-03-07 00:15:00,24.9,22.9,30.26,WNW,298,11.2,21.0,92,0.00,,,0.00,VWS V14.01,2013-03-07 05:15:00,
2013-03-07 00:20:00,24.9,22.9,30.26,NNW,333,4.2,21.0,92,0.00,,,0.00,VWS V14.01,2013-03-07 05:20:00,
2013-03-07 00:25:00,24.9,22.9,30.26,NW,310,8.4,21.0,92,0.00,,,0.00,VWS V14.01,2013-03-07 05:25:00,
2013-03-07 00:29:00,24.9,22.9,30.26,NNW,331,4.2,21.0,92,0.00,,,0.00,VWS V14.01,2013-03-07 05:29:00,
2013-03-07 00:34:00,24.8,22.5,30.26,WNW,295,9.8,21.0,91,0.00,,,0.00,VWS V14.01,2013-03-07 05:34:00,
2013-03-07 00:39:00,24.7,22.5,30.26,NNW,342,12.6,23.8,91,0.00,,,0.00,VWS V14.01,2013-03-07 05:39:00,
2013-03-07 00:44:00,24.6,22.4,30.26,WNW,301,11.2,23.8,91,0.00,,,0.00,VWS V14.01,2013-03-07 05:44:00,
2013-03-07 00:49:00,24.5,22.2,30.25,NW,316,9.8,23.8,91,0.00,,,0.00,VWS V14.01,2013-03-07 05:49:00,
2013-03-07 00:54:00,24.4,22.2,30.25,West,274,4.2,23.8,91,0.00,,,0.00,VWS V14.01,2013-03-07 05:54:00,
2013-03-07 00:59:00,24.4,22.2,30.25,NNW,328,7.0,23.8,91,0.00,,,0.00,VWS V14.01,2013-03-07 05:59:00,
2013-03-07 01:00:00,24.0,21.2,30.26,NW,312,7.0,23.8,89,0.00,,,0.00,VWS V14.01,2013-03-07 06:00:00,
2013-03-07 01:04:00,24.4,22.2,30.25,NW,315,8.4,23.8,91,0.00,,,0.00,VWS V14.01,2013-03-07 06:04:00,
2013-03-07 01:09:00,24.3,21.8,30.25,NW,309,15.4,23.8,90,0.00,,,0.00,VWS V14.01,2013-03-07 06:09:00,
2013-03-07 01:14:00,24.3,21.8,30.26,NNW,328,15.4,23.8,90,0.00,,,0.00,VWS V14.01,2013-03-07 06:14:00,
2013-03-07 01:19:00,24.2,21.7,30.26,NNW,346,9.8,23.8,90,0.00,,,0.00,VWS V14.01,2013-03-07 06:19:00,
2013-03-07 01:24:00,24.2,21.7,30.26,NNW,339,11.2,23.8,90,0.00,,,0.00,VWS V14.01,2013-03-07 06:24:00,
2013-03-07 01:29:00,24.2,21.7,30.26,NW,318,8.4,23.8,90,0.00,,,0.00,VWS V14.01,2013-03-07 06:29:00,
2013-03-07 01:34:00,24.1,21.6,30.26,North,357,16.8,23.8,90,0.00,,,0.00,VWS V14.01,2013-03-07 06:34:00,
2013-03-07 01:39:00,24.0,21.5,30.26,WSW,256,4.2,23.8,90,0.00,,,0.00,VWS V14.01,2013-03-07 06:39:00,
2013-03-07 01:44:00,24.0,21.5,30.26,North,352,16.8,23.8,90,0.00,,,0.00,VWS V14.01,2013-03-07 06:44:00,
2013-03-07 01:49:00,24.0,21.5,30.26,East,86,2.8,23.8,90,0.00,,,0.00,VWS V14.01,2013-03-07 06:49:00,
2013-03-07 01:54:00,24.0,21.2,30.26,SSW,210,4.2,23.8,89,0.00,,,0.00,VWS V14.01,2013-03-07 06:54:00,
2013-03-07 01:59:00,24.0,21.2,30.26,North,8,5.6,23.8,89,0.00,,,0.00,VWS V14.01,2013-03-07 06:59:00,
2013-03-07 02:00:00,24.0,21.2,30.26,NW,312,7.0,23.8,89,0.00,,,0.00,VWS V14.01,2013-03-07 07:00:00,
2013-03-07 02:04:00,24.0,21.2,30.26,West,269,11.2,22.4,89,0.00,,,0.00,VWS V14.01,2013-03-07 07:04:00,
2013-03-07 02:09:00,24.0,21.2,30.26,WNW,290,5.6,22.4,89,0.00,,,0.00,VWS V14.01,2013-03-07 07:09:00,
2013-03-07 02:14:00,24.0,21.0,30.27,NW,316,14.0,22.4,88,0.00,,,0.00,VWS V14.01,2013-03-07 07:14:00,
2013-03-07 02:19:00,24.1,21.1,30.27,North,352,5.6,22.4,88,0.00,,,0.00,VWS V14.01,2013-03-07 07:19:00,
2013-03-07 02:24:00,24.1,21.1,30.26,NNW,342,4.2,22.4,88,0.00,,,0.00,VWS V14.01,2013-03-07 07:24:00,
2013-03-07 02:29:00,24.1,20.8,30.26,NW,305,9.8,22.4,87,0.00,,,0.00,VWS V14.01,2013-03-07 07:29:00,
2013-03-07 02:34:00,24.1,20.8,30.26,NNW,335,5.6,23.8,87,0.00,,,0.00,VWS V14.01,2013-03-07 07:34:00,
2013-03-07 02:38:00,24.0,20.7,30.26,NNW,347,12.6,23.8,87,0.00,,,0.00,VWS V14.01,2013-03-07 07:38:00,
2013-03-07 02:43:00,24.1,20.8,30.26,West,271,5.6,23.8,87,0.00,,,0.00,VWS V14.01,2013-03-07 07:43:00,
2013-03-07 02:48:00,24.0,20.7,30.26,NNW,345,14.0,23.8,87,0.00,,,0.00,VWS V14.01,2013-03-07 07:48:00,
2013-03-07 02:53:00,24.0,20.7,30.26,NNW,342,12.6,23.8,87,0.00,,,0.00,VWS V14.01,2013-03-07 07:53:00,
2013-03-07 02:58:00,24.1,20.8,30.26,SSW,194,9.8,23.8,87,0.00,,,0.00,VWS V14.01,2013-03-07 07:58:00,
2013-03-07 03:00:00,24.4,20.5,30.27,NW,319,2.8,23.8,85,0.00,,,0.00,VWS V14.01,2013-03-07 08:00:00,
2013-03-07 03:03:00,24.1,20.8,30.26,NNE,18,11.2,23.8,87,0.00,,,0.00,VWS V14.01,2013-03-07 08:03:00,
2013-03-07 03:08:00,24.1,20.5,30.26,West,271,8.4,23.8,86,0.00,,,0.00,VWS V14.01,2013-03-07 08:08:00,
2013-03-07 03:13:00,24.1,20.5,30.27,NW,309,1.4,23.8,86,0.00,,,0.00,VWS V14.01,2013-03-07 08:13:00,
2013-03-07 03:18:00,24.1,20.5,30.27,North,351,4.2,23.8,86,0.00,,,0.00,VWS V14.01,2013-03-07 08:18:00,
2013-03-07 03:23:00,24.2,20.6,30.27,WNW,301,4.2,23.8,86,0.00,,,0.00,VWS V14.01,2013-03-07 08:23:00,
2013-03-07 03:28:00,24.2,20.6,30.27,NNW,333,2.8,23.8,86,0.00,,,0.00,VWS V14.01,2013-03-07 08:28:00,
2013-03-07 03:33:00,24.3,20.7,30.27,NW,319,11.2,23.8,86,0.00,,,0.00,VWS V14.01,2013-03-07 08:33:00,
2013-03-07 03:38:00,24.3,20.7,30.27,NW,305,8.4,23.8,86,0.00,,,0.00,VWS V14.01,2013-03-07 08:38:00,
2013-03-07 03:43:00,24.4,20.5,30.27,WNW,300,7.0,23.8,85,0.00,,,0.00,VWS V14.01,2013-03-07 08:43:00,
2013-03-07 03:48:00,24.4,20.8,30.27,WNW,299,2.8,23.8,86,0.00,,,0.00,VWS V14.01,2013-03-07 08:48:00,
2013-03-07 03:53:00,24.4,20.5,30.27,NNW,328,9.8,23.8,85,0.00,,,0.00,VWS V14.01,2013-03-07 08:53:00,
2013-03-07 03:58:00,24.4,20.5,30.27,NW,322,16.8,23.8,85,0.00,,,0.00,VWS V14.01,2013-03-07 08:58:00,
2013-03-07 04:00:00,24.4,20.5,30.27,NW,319,2.8,23.8,85,0.00,,,0.00,VWS V14.01,2013-03-07 09:00:00,
2013-03-07 04:03:00,24.4,20.5,30.27,NNW,328,12.6,18.2,85,0.00,,,0.00,VWS V14.01,2013-03-07 09:03:00,
2013-03-07 04:08:00,24.4,20.8,30.27,NNW,338,9.8,19.6,86,0.00,,,0.00,VWS V14.01,2013-03-07 09:08:00,
2013-03-07 04:13:00,24.4,20.8,30.27,NNW,338,15.4,19.6,86,0.00,,,0.00,VWS V14.01,2013-03-07 09:13:00,
2013-03-07 04:18:00,24.4,20.8,30.28,WNW,289,9.8,19.6,86,0.00,,,0.00,VWS V14.01,2013-03-07 09:18:00,
2013-03-07 04:23:00,24.5,20.9,30.28,WSW,242,5.6,19.6,86,0.00,,,0.00,VWS V14.01,2013-03-07 09:23:00,
2013-03-07 04:28:00,24.5,20.9,30.28,NNE,20,7.0,19.6,86,0.00,,,0.00,VWS V14.01,2013-03-07 09:28:00,
2013-03-07 04:33:00,24.5,20.9,30.28,North,354,4.2,19.6,86,0.00,,,0.00,VWS V14.01,2013-03-07 09:33:00,
2013-03-07 04:38:00,24.5,20.6,30.28,NE,56,4.2,19.6,85,0.00,,,0.00,VWS V14.01,2013-03-07 09:38:00,
2013-03-07 04:43:00,24.5,20.6,30.28,NNW,343,8.4,19.6,85,0.00,,,0.00,VWS V14.01,2013-03-07 09:43:00,
2013-03-07 04:48:00,24.5,20.6,30.28,NW,319,5.6,19.6,85,0.00,,,0.00,VWS V14.01,2013-03-07 09:48:00,
2013-03-07 04:53:00,24.5,20.6,30.28,NW,322,4.2,19.6,85,0.00,,,0.00,VWS V14.01,2013-03-07 09:53:00,
2013-03-07 04:58:00,24.5,20.6,30.28,West,262,5.6,19.6,85,0.00,,,0.00,VWS V14.01,2013-03-07 09:58:00,
2013-03-07 05:00:00,24.4,20.5,30.28,NW,315,1.4,19.6,85,0.00,,,0.00,VWS V14.01,2013-03-07 10:00:00,
2013-03-07 05:03:00,24.6,20.5,30.28,North,355,2.8,19.6,84,0.00,,,0.00,VWS V14.01,2013-03-07 10:03:00,
2013-03-07 05:08:00,24.6,20.5,30.28,NNW,332,5.6,19.6,84,0.00,,,0.00,VWS V14.01,2013-03-07 10:08:00,
2013-03-07 05:13:00,24.6,20.2,30.28,WNW,285,1.4,19.6,83,0.00,,,0.00,VWS V14.01,2013-03-07 10:13:00,
2013-03-07 05:18:00,24.7,20.3,30.28,NNW,345,8.4,19.6,83,0.00,,,0.00,VWS V14.01,2013-03-07 10:18:00,
2013-03-07 05:23:00,24.6,20.2,30.28,NW,319,8.4,19.6,83,0.00,,,0.00,VWS V14.01,2013-03-07 10:23:00,
2013-03-07 05:28:00,24.5,20.1,30.28,NNW,328,8.4,19.6,83,0.00,,,0.00,VWS V14.01,2013-03-07 10:28:00,
2013-03-07 05:33:00,24.4,20.3,30.28,NW,312,4.2,19.6,84,0.00,,,0.00,VWS V14.01,2013-03-07 10:33:00,
2013-03-07 05:38:00,24.4,20.3,30.28,NW,320,8.4,19.6,84,0.00,,,0.00,VWS V14.01,2013-03-07 10:38:00,
2013-03-07 05:43:00,24.4,20.3,30.28,North,1,2.8,19.6,84,0.00,,,0.00,VWS V14.01,2013-03-07 10:43:00,
2013-03-07 05:48:00,24.4,20.5,30.28,NNW,335,8.4,19.6,85,0.00,,,0.00,VWS V14.01,2013-03-07 10:48:00,
2013-03-07 05:53:00,24.4,20.3,30.28,WNW,299,2.8,19.6,84,0.00,,,0.00,VWS V14.01,2013-03-07 10:53:00,
2013-03-07 05:58:00,24.4,20.5,30.28,WNW,301,4.2,19.6,85,0.00,,,0.00,VWS V14.01,2013-03-07 10:58:00,
2013-03-07 06:00:00,24.4,20.5,30.28,NW,315,1.4,19.6,85,0.00,,,0.00,VWS V14.01,2013-03-07 11:00:00,
2013-03-07 06:03:00,24.4,20.5,30.28,West,269,4.2,8.4,85,0.00,,,0.00,VWS V14.01,2013-03-07 11:03:00,
2013-03-07 06:08:00,24.4,20.5,30.28,NNW,338,1.4,8.4,85,0.00,,,0.00,VWS V14.01,2013-03-07 11:08:00,
2013-03-07 06:13:00,24.4,20.5,30.28,WNW,283,7.0,15.4,85,0.00,,,0.00,VWS V14.01,2013-03-07 11:13:00,
2013-03-07 06:18:00,24.5,20.6,30.29,WNW,291,2.8,15.4,85,0.00,,,0.00,VWS V14.01,2013-03-07 11:18:00,
2013-03-07 06:23:00,24.6,20.5,30.29,WNW,283,2.8,15.4,84,0.00,,,0.00,VWS V14.01,2013-03-07 11:23:00,
2013-03-07 06:28:00,24.6,20.5,30.29,NW,313,4.2,15.4,84,0.00,,,0.00,VWS V14.01,2013-03-07 11:28:00,
2013-03-07 06:33:00,24.7,20.6,30.29,West,273,0.0,15.4,84,0.00,,,0.00,VWS V14.01,2013-03-07 11:33:00,
2013-03-07 06:38:00,24.7,20.6,30.29,WNW,302,2.8,15.4,84,0.00,,,0.00,VWS V14.01,2013-03-07 11:38:00,
2013-03-07 06:43:00,24.8,20.7,30.29,NW,305,5.6,15.4,84,0.00,,,0.00,VWS V14.01,2013-03-07 11:43:00,
2013-03-07 06:48:00,24.8,20.7,30.29,West,278,4.2,15.4,84,0.00,,,0.00,VWS V14.01,2013-03-07 11:48:00,
2013-03-07 06:53:00,24.8,20.7,30.29,WNW,288,4.2,15.4,84,0.00,,,0.00,VWS V14.01,2013-03-07 11:53:00,
2013-03-07 06:58:00,24.9,21.0,30.30,WNW,290,4.2,15.4,85,0.00,,,0.00,VWS V14.01,2013-03-07 11:58:00,
2013-03-07 07:00:00,25.8,22.2,30.31,WSW,252,4.2,15.4,86,0.00,,,0.00,VWS V14.01,2013-03-07 12:00:00,
2013-03-07 07:02:00,24.9,21.0,30.30,WSW,247,5.6,15.4,85,0.00,,,0.00,VWS V14.01,2013-03-07 12:02:00,
2013-03-07 07:07:00,24.9,20.8,30.30,WNW,290,1.4,15.4,84,0.00,,,0.00,VWS V14.01,2013-03-07 12:07:00,
2013-03-07 07:12:00,24.9,21.0,30.30,West,264,4.2,15.4,85,0.00,,,0.00,VWS V14.01,2013-03-07 12:12:00,
2013-03-07 07:17:00,25.0,21.1,30.30,WNW,290,2.8,15.4,85,0.00,,,0.00,VWS V14.01,2013-03-07 12:17:00,
2013-03-07 07:22:00,25.0,21.1,30.30,NE,53,1.4,15.4,85,0.00,,,0.00,VWS V14.01,2013-03-07 12:22:00,
2013-03-07 07:27:00,25.0,21.1,30.31,West,267,4.2,15.4,85,0.00,,,0.00,VWS V14.01,2013-03-07 12:27:00,
2013-03-07 07:32:00,25.0,21.1,30.31,NW,319,4.2,15.4,85,0.00,,,0.00,VWS V14.01,2013-03-07 12:32:00,
2013-03-07 07:37:00,25.1,21.2,30.31,NW,318,2.8,15.4,85,0.00,,,0.00,VWS V14.01,2013-03-07 12:37:00,
2013-03-07 07:42:00,25.3,21.4,30.31,NNW,332,4.2,15.4,85,0.00,,,0.00,VWS V14.01,2013-03-07 12:42:00,
2013-03-07 07:47:00,25.4,21.5,30.31,NNW,331,7.0,15.4,85,0.00,,,0.00,VWS V14.01,2013-03-07 12:47:00,
2013-03-07 07:52:00,25.6,21.7,30.31,NNW,340,4.2,15.4,85,0.00,,,0.00,VWS V14.01,2013-03-07 12:52:00,
2013-03-07 07:57:00,25.7,21.8,30.31,North,356,9.8,15.4,85,0.00,,,0.00,VWS V14.01,2013-03-07 12:57:00,
2013-03-07 08:00:00,25.8,22.2,30.31,WSW,252,4.2,15.4,86,0.00,,,0.00,VWS V14.01,2013-03-07 13:00:00,
2013-03-07 08:02:00,25.9,22.0,30.32,West,273,7.0,7.0,85,0.00,,,0.00,VWS V14.01,2013-03-07 13:02:00,
2013-03-07 08:07:00,26.0,22.1,30.32,NNW,336,0.0,11.2,85,0.00,,,0.00,VWS V14.01,2013-03-07 13:07:00,
2013-03-07 08:12:00,26.0,22.1,30.32,West,267,0.0,11.2,85,0.00,,,0.00,VWS V14.01,2013-03-07 13:12:00,
2013-03-07 08:17:00,26.1,22.2,30.32,NW,312,9.8,16.8,85,0.00,,,0.00,VWS V14.01,2013-03-07 13:17:00,
2013-03-07 08:22:00,26.1,22.5,30.32,North,5,7.0,16.8,86,0.00,,,0.00,VWS V14.01,2013-03-07 13:22:00,
2013-03-07 08:27:00,26.2,22.6,30.32,NW,321,5.6,16.8,86,0.00,,,0.00,VWS V14.01,2013-03-07 13:27:00,
2013-03-07 08:32:00,26.3,22.4,30.32,West,260,8.4,21.0,85,0.00,,,0.00,VWS V14.01,2013-03-07 13:32:00,
2013-03-07 08:37:00,26.5,22.9,30.32,NW,319,12.6,21.0,86,0.00,,,0.00,VWS V14.01,2013-03-07 13:37:00,
2013-03-07 08:42:00,26.6,22.7,30.32,NW,315,9.8,21.0,85,0.00,,,0.00,VWS V14.01,2013-03-07 13:42:00,
2013-03-07 08:47:00,26.7,22.8,30.32,NW,326,5.6,21.0,85,0.00,,,0.00,VWS V14.01,2013-03-07 13:47:00,
2013-03-07 08:52:00,26.7,22.8,30.32,NW,322,14.0,21.0,85,0.00,,,0.00,VWS V14.01,2013-03-07 13:52:00,
2013-03-07 08:57:00,26.9,23.0,30.33,WSW,242,14.0,21.0,85,0.00,,,0.00,VWS V14.01,2013-03-07 13:57:00,
2013-03-07 09:00:00,27.8,23.0,30.35,NNW,328,5.6,26.6,82,0.00,,,0.00,VWS V14.01,2013-03-07 14:00:00,
2013-03-07 09:02:00,26.9,22.7,30.33,NW,316,8.4,26.6,84,0.00,,,0.00,VWS V14.01,2013-03-07 14:02:00,
2013-03-07 09:07:00,27.0,22.8,30.33,NW,315,7.0,26.6,84,0.00,,,0.00,VWS V14.01,2013-03-07 14:07:00,
2013-03-07 09:12:00,27.1,22.9,30.33,NNW,347,11.2,26.6,84,0.00,,,0.00,VWS V14.01,2013-03-07 14:12:00,
2013-03-07 09:17:00,27.1,22.6,30.33,NW,325,12.6,26.6,83,0.00,,,0.00,VWS V14.01,2013-03-07 14:17:00,
2013-03-07 09:22:00,27.3,22.8,30.33,NW,308,7.0,26.6,83,0.00,,,0.00,VWS V14.01,2013-03-07 14:22:00,
2013-03-07 09:27:00,27.4,22.9,30.34,NW,326,8.4,26.6,83,0.00,,,0.00,VWS V14.01,2013-03-07 14:27:00,
2013-03-07 09:32:00,27.4,22.6,30.34,WNW,291,8.4,26.6,82,0.00,,,0.00,VWS V14.01,2013-03-07 14:32:00,
2013-03-07 09:37:00,27.5,22.7,30.34,ESE,115,2.8,26.6,82,0.00,,,0.00,VWS V14.01,2013-03-07 14:37:00,
2013-03-07 09:42:00,27.5,22.7,30.34,NNW,333,12.6,26.6,82,0.00,,,0.00,VWS V14.01,2013-03-07 14:42:00,
2013-03-07 09:47:00,27.6,22.8,30.34,WSW,250,8.4,26.6,82,0.00,,,0.00,VWS V14.01,2013-03-07 14:47:00,
2013-03-07 09:52:00,27.6,22.8,30.34,SSE,165,5.6,26.6,82,0.00,,,0.00,VWS V14.01,2013-03-07 14:52:00,
2013-03-07 09:57:00,27.8,23.0,30.34,NNW,342,9.8,26.6,82,0.00,,,0.00,VWS V14.01,2013-03-07 14:57:00,
2013-03-07 10:00:00,27.8,23.0,30.35,NNW,328,5.6,26.6,82,0.00,,,0.00,VWS V14.01,2013-03-07 15:00:00,
2013-03-07 10:02:00,27.7,22.6,30.34,NNW,333,14.0,16.8,81,0.00,,,0.00,VWS V14.01,2013-03-07 15:02:00,
2013-03-07 10:07:00,27.8,22.7,30.34,WNW,296,8.4,16.8,81,0.00,,,0.00,VWS V14.01,2013-03-07 15:07:00,
2013-03-07 10:12:00,27.9,22.8,30.34,NNW,328,5.6,19.6,81,0.00,,,0.00,VWS V14.01,2013-03-07 15:12:00,
2013-03-07 10:17:00,28.0,22.9,30.35,WSW,255,8.4,19.6,81,0.00,,,0.00,VWS V14.01,2013-03-07 15:17:00,
2013-03-07 10:22:00,28.0,22.9,30.35,West,273,11.2,19.6,81,0.00,,,0.00,VWS V14.01,2013-03-07 15:22:00,
2013-03-07 10:27:00,28.0,22.9,30.35,NW,316,12.6,19.6,81,0.00,,,0.00,VWS V14.01,2013-03-07 15:27:00,
2013-03-07 10:32:00,28.2,22.8,30.35,WNW,291,8.4,22.4,80,0.00,,,0.00,VWS V14.01,2013-03-07 15:32:00,
2013-03-07 10:37:00,28.2,22.5,30.35,West,278,11.2,22.4,79,0.00,,,0.00,VWS V14.01,2013-03-07 15:37:00,
2013-03-07 10:42:00,28.5,23.1,30.35,WSW,246,4.2,22.4,80,0.00,,,0.00,VWS V14.01,2013-03-07 15:42:00,
2013-03-07 10:47:00,28.7,23.0,30.35,SW,236,5.6,22.4,79,0.00,,,0.00,VWS V14.01,2013-03-07 15:47:00,
2013-03-07 10:52:00,28.5,22.8,30.35,NW,315,7.0,22.4,79,0.00,,,0.00,VWS V14.01,2013-03-07 15:52:00,
2013-03-07 10:57:00,28.6,22.9,30.35,NNW,335,7.0,22.4,79,0.00,,,0.00,VWS V14.01,2013-03-07 15:57:00,
2013-03-07 11:00:00,29.1,23.1,30.36,NW,316,14.0,25.2,78,0.00,,,0.00,VWS V14.01,2013-03-07 16:00:00,
2013-03-07 11:02:00,28.6,22.9,30.35,NW,311,12.6,22.4,79,0.00,,,0.00,VWS V14.01,2013-03-07 16:02:00,
2013-03-07 11:07:00,28.5,22.8,30.35,NNE,18,15.4,22.4,79,0.00,,,0.00,VWS V14.01,2013-03-07 16:07:00,
2013-03-07 11:12:00,28.5,22.8,30.35,NW,309,9.8,23.8,79,0.00,,,0.00,VWS V14.01,2013-03-07 16:12:00,
2013-03-07 11:17:00,28.8,23.1,30.35,NNW,342,2.8,23.8,79,0.00,,,0.00,VWS V14.01,2013-03-07 16:17:00,
2013-03-07 11:22:00,29.1,23.4,30.35,NW,326,7.0,23.8,79,0.00,,,0.00,VWS V14.01,2013-03-07 16:22:00,
2013-03-07 11:27:00,29.5,23.8,30.36,WNW,302,18.2,23.8,79,0.00,,,0.00,VWS V14.01,2013-03-07 16:27:00,
2013-03-07 11:32:00,29.2,23.5,30.35,WSW,249,7.0,23.8,79,0.00,,,0.00,VWS V14.01,2013-03-07 16:32:00,
2013-03-07 11:37:00,29.3,23.3,30.35,NNW,341,15.4,23.8,78,0.00,,,0.00,VWS V14.01,2013-03-07 16:37:00,
2013-03-07 11:42:00,29.2,23.2,30.35,NW,307,18.2,23.8,78,0.00,,,0.00,VWS V14.01,2013-03-07 16:42:00,
2013-03-07 11:47:00,28.9,22.9,30.36,NW,319,21.0,25.2,78,0.00,,,0.00,VWS V14.01,2013-03-07 16:47:00,
2013-03-07 11:52:00,28.8,22.8,30.36,NNW,330,11.2,25.2,78,0.00,,,0.00,VWS V14.01,2013-03-07 16:52:00,
2013-03-07 11:57:00,29.0,23.0,30.36,NW,325,18.2,25.2,78,0.00,,,0.00,VWS V14.01,2013-03-07 16:57:00,
2013-03-07 12:00:00,29.1,23.1,30.36,NW,316,14.0,25.2,78,0.00,,,0.00,VWS V14.01,2013-03-07 17:00:00,
2013-03-07 12:02:00,29.3,23.3,30.36,NNW,338,7.0,18.2,78,0.00,,,0.00,VWS V14.01,2013-03-07 17:02:00,
2013-03-07 12:07:00,29.6,23.6,30.36,West,273,4.2,18.2,78,0.00,,,0.00,VWS V14.01,2013-03-07 17:07:00,
2013-03-07 12:12:00,29.5,23.2,30.36,WSW,253,5.6,18.2,77,0.00,,,0.00,VWS V14.01,2013-03-07 17:12:00,
2013-03-07 12:17:00,29.3,23.0,30.36,West,267,5.6,22.4,77,0.00,,,0.00,VWS V14.01,2013-03-07 17:17:00,
2013-03-07 12:22:00,29.4,23.1,30.36,West,264,7.0,22.4,77,0.00,,,0.00,VWS V14.01,2013-03-07 17:22:00,
2013-03-07 12:27:00,29.3,23.0,30.36,WNW,302,8.4,22.4,77,0.00,,,0.00,VWS V14.01,2013-03-07 17:27:00,
2013-03-07 12:32:00,29.4,23.1,30.37,West,269,4.2,22.4,77,0.00,,,0.00,VWS V14.01,2013-03-07 17:32:00,
2013-03-07 12:37:00,29.6,23.3,30.36,WNW,290,5.6,22.4,77,0.00,,,0.00,VWS V14.01,2013-03-07 17:37:00,
2013-03-07 12:42:00,29.3,23.0,30.36,NNW,335,18.2,25.2,77,0.00,,,0.00,VWS V14.01,2013-03-07 17:42:00,
2013-03-07 12:47:00,29.2,23.2,30.36,West,277,12.6,25.2,78,0.00,,,0.00,VWS V14.01,2013-03-07 17:47:00,
2013-03-07 12:52:00,29.1,23.1,30.36,NW,321,11.2,25.2,78,0.00,,,0.00,VWS V14.01,2013-03-07 17:52:00,
2013-03-07 12:57:00,28.9,22.9,30.37,West,273,7.0,25.2,78,0.00,,,0.00,VWS V14.01,2013-03-07 17:57:00,
2013-03-07 13:00:00,30.1,24.4,30.36,NW,324,12.6,26.6,79,0.00,,,0.00,VWS V14.01,2013-03-07 18:00:00,
2013-03-07 13:02:00,29.1,23.1,30.36,NNW,346,7.0,25.2,78,0.00,,,0.00,VWS V14.01,2013-03-07 18:02:00,
2013-03-07 13:07:00,29.4,23.4,30.37,NNW,329,2.8,25.2,78,0.00,,,0.00,VWS V14.01,2013-03-07 18:07:00,
2013-03-07 13:12:00,29.3,23.3,30.37,NNW,332,21.0,25.2,78,0.00,,,0.00,VWS V14.01,2013-03-07 18:12:00,
2013-03-07 13:17:00,29.1,23.1,30.37,WNW,295,15.4,26.6,78,0.00,,,0.00,VWS V14.01,2013-03-07 18:17:00,
2013-03-07 13:22:00,29.2,23.2,30.36,NNW,347,16.8,26.6,78,0.00,,,0.00,VWS V14.01,2013-03-07 18:22:00,
2013-03-07 13:27:00,29.2,23.2,30.36,NNW,328,8.4,26.6,78,0.00,,,0.00,VWS V14.01,2013-03-07 18:27:00,
2013-03-07 13:32:00,29.4,23.4,30.37,NNW,335,14.0,26.6,78,0.00,,,0.00,VWS V14.01,2013-03-07 18:32:00,
2013-03-07 13:37:00,29.6,23.6,30.36,NNW,338,12.6,26.6,78,0.00,,,0.00,VWS V14.01,2013-03-07 18:37:00,
2013-03-07 13:42:00,29.6,23.6,30.36,NW,304,8.4,26.6,78,0.00,,,0.00,VWS V14.01,2013-03-07 18:42:00,
2013-03-07 13:47:00,29.9,24.2,30.37,NW,319,5.6,26.6,79,0.00,,,0.00,VWS V14.01,2013-03-07 18:47:00,
2013-03-07 13:52:00,30.0,24.3,30.37,NW,314,7.0,26.6,79,0.00,,,0.00,VWS V14.01,2013-03-07 18:52:00,
2013-03-07 13:57:00,30.1,24.4,30.36,North,350,26.6,26.6,79,0.00,,,0.00,VWS V14.01,2013-03-07 18:57:00,
2013-03-07 14:02:00,30.2,24.5,30.36,WNW,302,7.0,22.4,79,0.00,,,0.00,VWS V14.01,2013-03-07 19:02:00,
2013-03-07 14:07:00,30.4,24.7,30.36,NW,318,11.2,22.4,79,0.00,,,0.00,VWS V14.01,2013-03-07 19:07:00,
2013-03-07 14:12:00,30.4,24.4,30.36,NW,319,11.2,28.0,78,0.00,,,0.00,VWS V14.01,2013-03-07 19:12:00,
2013-03-07 14:17:00,30.5,24.8,30.36,NNW,335,12.6,28.0,79,0.00,,,0.00,VWS V14.01,2013-03-07 19:17:00,
2013-03-07 14:22:00,30.7,24.7,30.36,NNW,328,15.4,28.0,78,0.00,,,0.00,VWS V14.01,2013-03-07 19:22:00,
2013-03-07 14:27:00,30.4,24.7,30.36,NNW,338,18.2,28.0,79,0.00,,,0.00,VWS V14.01,2013-03-07 19:27:00,
2013-03-07 14:32:00,30.6,24.9,30.36,WNW,302,8.4,28.0,79,0.00,,,0.00,VWS V14.01,2013-03-07 19:32:00,
2013-03-07 14:34:00,30.9,25.5,30.36,NNW,338,16.8,28.0,80,0.00,,,0.00,VWS V14.01,2013-03-07 19:34:00,
2013-03-07 14:39:00,30.6,24.9,30.36,West,259,12.6,28.0,79,0.00,,,0.00,VWS V14.01,2013-03-07 19:39:00,
2013-03-07 14:44:00,30.6,24.9,30.36,NNW,345,11.2,28.0,79,0.00,,,0.00,VWS V14.01,2013-03-07 19:44:00,
2013-03-07 14:49:00,30.8,25.4,30.36,NNW,334,12.6,28.0,80,0.00,,,0.00,VWS V14.01,2013-03-07 19:49:00,
2013-03-07 14:54:00,30.9,25.2,30.36,NNW,347,12.6,28.0,79,0.00,,,0.00,VWS V14.01,2013-03-07 19:54:00,
2013-03-07 14:59:00,30.6,25.2,30.36,NNW,329,16.8,28.0,80,0.00,,,0.00,VWS V14.01,2013-03-07 19:59:00,
2013-03-07 15:00:00,29.6,25.1,30.37,NNE,20,15.4,29.4,83,0.00,,,0.00,VWS V14.01,2013-03-07 20:00:00,
2013-03-07 15:04:00,30.5,25.1,30.36,NNE,13,7.0,28.0,80,0.00,,,0.00,VWS V14.01,2013-03-07 20:04:00,
2013-03-07 15:09:00,30.1,24.7,30.36,NW,321,12.6,29.4,80,0.00,,,0.00,VWS V14.01,2013-03-07 20:09:00,
2013-03-07 15:14:00,30.3,25.2,30.37,West,268,7.0,29.4,81,0.00,,,0.00,VWS V14.01,2013-03-07 20:14:00,
2013-03-07 15:19:00,30.3,25.2,30.37,NW,308,12.6,29.4,81,0.00,,,0.00,VWS V14.01,2013-03-07 20:19:00,
2013-03-07 15:24:00,30.1,25.0,30.37,NW,322,16.8,29.4,81,0.00,,,0.00,VWS V14.01,2013-03-07 20:24:00,
2013-03-07 15:29:00,29.8,24.7,30.37,NNW,335,22.4,29.4,81,0.00,,,0.00,VWS V14.01,2013-03-07 20:29:00,
2013-03-07 15:34:00,29.6,24.8,30.37,NE,40,9.8,29.4,82,0.00,,,0.00,VWS V14.01,2013-03-07 20:34:00,
2013-03-07 15:39:00,29.6,25.1,30.37,WNW,295,8.4,29.4,83,0.00,,,0.00,VWS V14.01,2013-03-07 20:39:00,
2013-03-07 15:44:00,29.7,25.2,30.37,NNW,343,8.4,29.4,83,0.00,,,0.00,VWS V14.01,2013-03-07 20:44:00,
2013-03-07 15:49:00,29.6,25.1,30.37,NNW,347,8.4,29.4,83,0.00,,,0.00,VWS V14.01,2013-03-07 20:49:00,
2013-03-07 15:54:00,29.6,25.1,30.37,NW,326,4.2,29.4,83,0.00,,,0.00,VWS V14.01,2013-03-07 20:54:00,
2013-03-07 15:59:00,29.6,25.1,30.37,NNW,336,5.6,29.4,83,0.00,,,0.00,VWS V14.01,2013-03-07 20:59:00,
2013-03-07 16:00:00,29.6,25.1,30.37,NNE,20,15.4,29.4,83,0.00,,,0.00,VWS V14.01,2013-03-07 21:00:00,
2013-03-07 16:04:00,29.4,24.9,30.38,NNW,329,5.6,22.4,83,0.00,,,0.00,VWS V14.01,2013-03-07 21:04:00,
2013-03-07 16:09:00,29.3,25.1,30.38,WSW,248,8.4,22.4,84,0.00,,,0.00,VWS V14.01,2013-03-07 21:09:00,
2013-03-07 16:14:00,29.3,25.1,30.38,NW,305,9.8,22.4,84,0.00,,,0.00,VWS V14.01,2013-03-07 21:14:00,
2013-03-07 16:19:00,29.1,24.9,30.38,WNW,290,7.0,22.4,84,0.00,,,0.00,VWS V14.01,2013-03-07 21:19:00,
2013-03-07 16:24:00,29.1,24.9,30.38,NNW,338,11.2,22.4,84,0.00,,,0.00,VWS V14.01,2013-03-07 21:24:00,
2013-03-07 16:29:00,29.1,24.9,30.38,WSW,255,4.2,22.4,84,0.00,,,0.00,VWS V14.01,2013-03-07 21:29:00,
2013-03-07 16:34:00,29.2,25.0,30.38,NNW,328,11.2,22.4,84,0.00,,,0.00,VWS V14.01,2013-03-07 21:34:00,
2013-03-07 16:39:00,29.2,24.7,30.38,NNW,330,9.8,22.4,83,0.00,,,0.00,VWS V14.01,2013-03-07 21:39:00,
2013-03-07 16:44:00,29.2,24.7,30.38,SW,232,4.2,22.4,83,0.00,,,0.00,VWS V14.01,2013-03-07 21:44:00,
2013-03-07 16:49:00,29.2,24.7,30.38,NNW,345,8.4,22.4,83,0.00,,,0.00,VWS V14.01,2013-03-07 21:49:00,
2013-03-07 16:54:00,29.2,24.7,30.39,NNW,337,11.2,22.4,83,0.00,,,0.00,VWS V14.01,2013-03-07 21:54:00,
2013-03-07 16:59:00,29.3,25.1,30.39,NNW,338,16.8,22.4,84,0.00,,,0.00,VWS V14.01,2013-03-07 21:59:00,
2013-03-07 17:00:00,28.8,25.4,30.40,NW,321,5.6,22.4,87,0.00,,,0.00,VWS V14.01,2013-03-07 22:00:00,
2013-03-07 17:04:00,29.2,25.0,30.39,WNW,290,8.4,22.4,84,0.00,,,0.00,VWS V14.01,2013-03-07 22:04:00,
2013-03-07 17:09:00,29.2,25.0,30.39,NW,315,9.8,22.4,84,0.00,,,0.00,VWS V14.01,2013-03-07 22:09:00,
2013-03-07 17:14:00,29.3,25.1,30.39,NW,321,14.0,22.4,84,0.00,,,0.00,VWS V14.01,2013-03-07 22:14:00,
2013-03-07 17:19:00,29.2,25.0,30.39,NNW,328,12.6,22.4,84,0.00,,,0.00,VWS V14.01,2013-03-07 22:19:00,
2013-03-07 17:24:00,29.1,25.2,30.39,NW,322,9.8,22.4,85,0.00,,,0.00,VWS V14.01,2013-03-07 22:24:00,
2013-03-07 17:29:00,29.0,25.1,30.39,NNW,338,8.4,22.4,85,0.00,,,0.00,VWS V14.01,2013-03-07 22:29:00,
2013-03-07 17:34:00,29.0,25.1,30.39,NW,319,8.4,22.4,85,0.00,,,0.00,VWS V14.01,2013-03-07 22:34:00,
2013-03-07 17:39:00,29.0,25.1,30.39,WNW,297,2.8,22.4,85,0.00,,,0.00,VWS V14.01,2013-03-07 22:39:00,
2013-03-07 17:44:00,28.9,25.2,30.39,NW,321,4.2,22.4,86,0.00,,,0.00,VWS V14.01,2013-03-07 22:44:00,
2013-03-07 17:49:00,28.8,25.1,30.39,NNW,328,11.2,22.4,86,0.00,,,0.00,VWS V14.01,2013-03-07 22:49:00,
2013-03-07 17:54:00,28.8,25.4,30.39,SSW,212,1.4,22.4,87,0.00,,,0.00,VWS V14.01,2013-03-07 22:54:00,
2013-03-07 17:59:00,28.8,25.4,30.40,NNW,341,9.8,22.4,87,0.00,,,0.00,VWS V14.01,2013-03-07 22:59:00,
2013-03-07 18:00:00,28.8,25.4,30.40,NW,321,5.6,22.4,87,0.00,,,0.00,VWS V14.01,2013-03-07 23:00:00,
2013-03-07 18:04:00,28.7,25.3,30.40,WNW,297,5.6,7.0,87,0.00,,,0.00,VWS V14.01,2013-03-07 23:04:00,
2013-03-07 18:09:00,28.7,25.3,30.40,NNW,345,2.8,9.8,87,0.00,,,0.00,VWS V14.01,2013-03-07 23:09:00,
2013-03-07 18:14:00,28.6,25.2,30.40,NW,318,4.2,11.2,87,0.00,,,0.00,VWS V14.01,2013-03-07 23:14:00,
2013-03-07 18:19:00,28.6,25.2,30.40,NNW,343,2.8,11.2,87,0.00,,,0.00,VWS V14.01,2013-03-07 23:19:00,
2013-03-07 18:24:00,28.5,25.1,30.40,West,273,1.4,12.6,87,0.00,,,0.00,VWS V14.01,2013-03-07 23:24:00,
2013-03-07 18:29:00,28.5,25.4,30.41,NNW,341,8.4,12.6,88,0.00,,,0.00,VWS V14.01,2013-03-07 23:29:00,
2013-03-07 18:34:00,28.5,25.4,30.41,NW,326,4.2,12.6,88,0.00,,,0.00,VWS V14.01,2013-03-07 23:34:00,
2013-03-07 18:39:00,28.4,25.3,30.41,NW,322,8.4,18.2,88,0.00,,,0.00,VWS V14.01,2013-03-07 23:39:00,
2013-03-07 18:44:00,28.3,25.2,30.41,WNW,287,0.0,18.2,88,0.00,,,0.00,VWS V14.01,2013-03-07 23:44:00,
2013-03-07 18:49:00,28.3,25.5,30.41,NW,322,5.6,18.2,89,0.00,,,0.00,VWS V14.01,2013-03-07 23:49:00,
2013-03-07 18:54:00,28.3,25.5,30.41,NW,326,7.0,18.2,89,0.00,,,0.00,VWS V14.01,2013-03-07 23:54:00,
2013-03-07 18:59:00,28.3,25.2,30.41,NNW,335,7.0,18.2,88,0.00,,,0.00,VWS V14.01,2013-03-07 23:59:00,
2013-03-07 19:00:00,28.3,24.9,30.42,NNW,346,5.6,19.6,87,0.00,,,0.00,VWS V14.01,2013-03-08 00:00:00,
2013-03-07 19:04:00,28.3,25.2,30.41,NW,316,8.4,18.2,88,0.00,,,0.00,VWS V14.01,2013-03-08 00:04:00,
2013-03-07 19:09:00,28.3,25.2,30.41,NW,306,2.8,18.2,88,0.00,,,0.00,VWS V14.01,2013-03-08 00:09:00,
2013-03-07 19:14:00,28.3,25.2,30.41,SSW,204,1.4,18.2,88,0.00,,,0.00,VWS V14.01,2013-03-08 00:14:00,
2013-03-07 19:19:00,28.3,25.2,30.41,NW,319,12.6,18.2,88,0.00,,,0.00,VWS V14.01,2013-03-08 00:19:00,
2013-03-07 19:24:00,28.3,25.2,30.42,NW,308,5.6,18.2,88,0.00,,,0.00,VWS V14.01,2013-03-08 00:24:00,
2013-03-07 19:29:00,28.3,24.9,30.42,NW,319,7.0,18.2,87,0.00,,,0.00,VWS V14.01,2013-03-08 00:29:00,
2013-03-07 19:34:00,28.3,24.9,30.42,NNW,337,9.8,18.2,87,0.00,,,0.00,VWS V14.01,2013-03-08 00:34:00,
2013-03-07 19:39:00,28.3,24.9,30.42,NNW,330,5.6,18.2,87,0.00,,,0.00,VWS V14.01,2013-03-08 00:39:00,
2013-03-07 19:44:00,28.3,24.9,30.42,NW,322,8.4,18.2,87,0.00,,,0.00,VWS V14.01,2013-03-08 00:44:00,
2013-03-07 19:49:00,28.3,24.9,30.42,NNW,339,5.6,18.2,87,0.00,,,0.00,VWS V14.01,2013-03-08 00:49:00,
2013-03-07 19:54:00,28.3,24.9,30.42,NW,319,4.2,19.6,87,0.00,,,0.00,VWS V14.01,2013-03-08 00:54:00,
2013-03-07 19:59:00,28.2,24.8,30.42,NW,304,4.2,19.6,87,0.00,,,0.00,VWS V14.01,2013-03-08 00:59:00,
2013-03-07 20:00:00,28.3,24.9,30.42,NNW,346,5.6,19.6,87,0.00,,,0.00,VWS V14.01,2013-03-08 01:00:00,
2013-03-07 20:04:00,28.3,24.9,30.42,North,354,8.4,15.4,87,0.00,,,0.00,VWS V14.01,2013-03-08 01:04:00,
2013-03-07 20:09:00,28.3,24.7,30.42,NNW,335,7.0,16.8,86,0.00,,,0.00,VWS V14.01,2013-03-08 01:09:00,
2013-03-07 20:14:00,28.3,24.7,30.42,SW,232,5.6,16.8,86,0.00,,,0.00,VWS V14.01,2013-03-08 01:14:00,
2013-03-07 20:19:00,28.3,24.7,30.42,WNW,301,5.6,16.8,86,0.00,,,0.00,VWS V14.01,2013-03-08 01:19:00,
2013-03-07 20:24:00,28.3,24.4,30.41,NNW,343,2.8,16.8,85,0.00,,,0.00,VWS V14.01,2013-03-08 01:24:00,
2013-03-07 20:29:00,28.2,24.6,30.41,West,270,4.2,16.8,86,0.00,,,0.00,VWS V14.01,2013-03-08 01:29:00,
2013-03-07 20:34:00,28.2,24.3,30.41,NNE,18,8.4,16.8,85,0.00,,,0.00,VWS V14.01,2013-03-08 01:34:00,
2013-03-07 20:39:00,28.2,24.3,30.42,NNW,338,5.6,19.6,85,0.00,,,0.00,VWS V14.01,2013-03-08 01:39:00,
2013-03-07 20:44:00,28.2,24.3,30.41,North,357,4.2,19.6,85,0.00,,,0.00,VWS V14.01,2013-03-08 01:44:00,
2013-03-07 20:49:00,28.3,24.4,30.41,WSW,252,8.4,19.6,85,0.00,,,0.00,VWS V14.01,2013-03-08 01:49:00,
2013-03-07 20:54:00,28.3,24.4,30.42,NNW,343,4.2,19.6,85,0.00,,,0.00,VWS V14.01,2013-03-08 01:54:00,
2013-03-07 20:59:00,28.3,24.4,30.42,NW,321,7.0,19.6,85,0.00,,,0.00,VWS V14.01,2013-03-08 01:59:00,
2013-03-07 21:00:00,28.2,24.8,30.42,NW,326,4.2,19.6,87,0.00,,,0.00,VWS V14.01,2013-03-08 02:00:00,
2013-03-07 21:04:00,28.3,24.4,30.42,NW,308,7.0,19.6,85,0.00,,,0.00,VWS V14.01,2013-03-08 02:04:00,
2013-03-07 21:09:00,28.2,24.3,30.42,NNW,332,7.0,19.6,85,0.00,,,0.00,VWS V14.01,2013-03-08 02:09:00,
2013-03-07 21:14:00,28.0,24.1,30.42,NW,305,8.4,19.6,85,0.00,,,0.00,VWS V14.01,2013-03-08 02:14:00,
2013-03-07 21:19:00,27.9,24.3,30.42,NW,322,8.4,19.6,86,0.00,,,0.00,VWS V14.01,2013-03-08 02:19:00,
2013-03-07 21:24:00,28.0,24.4,30.42,NW,315,11.2,19.6,86,0.00,,,0.00,VWS V14.01,2013-03-08 02:24:00,
2013-03-07 21:29:00,28.0,24.6,30.42,West,264,4.2,19.6,87,0.00,,,0.00,VWS V14.01,2013-03-08 02:29:00,
2013-03-07 21:34:00,28.0,24.6,30.42,NNW,347,7.0,19.6,87,0.00,,,0.00,VWS V14.01,2013-03-08 02:34:00,
2013-03-07 21:39:00,28.0,24.6,30.42,NE,49,12.6,19.6,87,0.00,,,0.00,VWS V14.01,2013-03-08 02:39:00,
2013-03-07 21:44:00,28.1,24.7,30.42,NW,307,5.6,19.6,87,0.00,,,0.00,VWS V14.01,2013-03-08 02:44:00,
2013-03-07 21:48:00,28.1,24.7,30.42,NW,315,12.6,19.6,87,0.00,,,0.00,VWS V14.01,2013-03-08 02:48:00,
2013-03-07 21:53:00,28.1,24.7,30.42,NNW,342,11.2,19.6,87,0.00,,,0.00,VWS V14.01,2013-03-08 02:53:00,
2013-03-07 21:58:00,28.2,24.8,30.42,NW,305,4.2,19.6,87,0.00,,,0.00,VWS V14.01,2013-03-08 02:58:00,
2013-03-07 22:00:00,28.2,24.8,30.42,NW,326,4.2,19.6,87,0.00,,,0.00,VWS V14.01,2013-03-08 03:00:00,
2013-03-07 22:03:00,28.2,24.8,30.42,WSW,255,5.6,12.6,87,0.00,,,0.00,VWS V14.01,2013-03-08 03:03:00,
2013-03-07 22:08:00,28.2,24.8,30.42,WSW,249,8.4,19.6,87,0.00,,,0.00,VWS V14.01,2013-03-08 03:08:00,
2013-03-07 22:13:00,28.2,24.8,30.42,NNW,330,7.0,19.6,87,0.00,,,0.00,VWS V14.01,2013-03-08 03:13:00,
2013-03-07 22:18:00,28.3,24.9,30.42,WNW,298,9.8,19.6,87,0.00,,,0.00,VWS V14.01,2013-03-08 03:18:00,
2013-03-07 22:23:00,28.3,24.9,30.42,NW,325,11.2,19.6,87,0.00,,,0.00,VWS V14.01,2013-03-08 03:23:00,
2013-03-07 22:28:00,28.3,24.9,30.42,NNW,338,5.6,19.6,87,0.00,,,0.00,VWS V14.01,2013-03-08 03:28:00,
2013-03-07 22:33:00,28.3,24.9,30.42,NNW,331,9.8,19.6,87,0.00,,,0.00,VWS V14.01,2013-03-08 03:33:00,
2013-03-07 22:38:00,28.3,24.9,30.42,NNW,335,7.0,19.6,87,0.00,,,0.00,VWS V14.01,2013-03-08 03:38:00,
2013-03-07 22:43:00,28.3,24.9,30.42,NNW,333,11.2,19.6,87,0.00,,,0.00,VWS V14.01,2013-03-08 03:43:00,
2013-03-07 22:48:00,28.4,25.0,30.42,NW,321,8.4,19.6,87,0.00,,,0.00,VWS V14.01,2013-03-08 03:48:00,
2013-03-07 22:53:00,28.5,25.4,30.43,NNW,347,7.0,19.6,88,0.00,,,0.00,VWS V14.01,2013-03-08 03:53:00,
2013-03-07 22:58:00,28.6,25.5,30.43,North,350,4.2,19.6,88,0.00,,,0.00,VWS V14.01,2013-03-08 03:58:00,
2013-03-07 23:00:00,29.2,26.6,30.42,NNE,22,5.6,19.6,90,0.00,,,0.00,VWS V14.01,2013-03-08 04:00:00,
2013-03-07 23:03:00,28.6,25.5,30.43,NW,325,11.2,19.6,88,0.00,,,0.00,VWS V14.01,2013-03-08 04:03:00,
2013-03-07 23:08:00,28.7,25.6,30.43,NW,326,7.0,19.6,88,0.00,,,0.00,VWS V14.01,2013-03-08 04:08:00,
2013-03-07 23:13:00,28.7,25.6,30.43,NW,319,7.0,19.6,88,0.00,,,0.00,VWS V14.01,2013-03-08 04:13:00,
2013-03-07 23:18:00,28.7,25.6,30.42,NNW,330,5.6,19.6,88,0.00,,,0.00,VWS V14.01,2013-03-08 04:18:00,
2013-03-07 23:23:00,28.8,25.7,30.43,NNW,331,8.4,19.6,88,0.00,,,0.00,VWS V14.01,2013-03-08 04:23:00,
2013-03-07 23:28:00,28.9,26.1,30.42,NNW,331,5.6,19.6,89,0.00,,,0.00,VWS V14.01,2013-03-08 04:28:00,
2013-03-07 23:33:00,28.9,26.1,30.42,NNW,347,9.8,19.6,89,0.00,,,0.00,VWS V14.01,2013-03-08 04:33:00,
2013-03-07 23:38:00,28.9,26.1,30.42,NNW,338,8.4,19.6,89,0.00,,,0.00,VWS V14.01,2013-03-08 04:38:00,
2013-03-07 23:43:00,28.9,26.1,30.42,NNW,340,5.6,19.6,89,0.00,,,0.00,VWS V14.01,2013-03-08 04:43:00,
2013-03-07 23:48:00,28.9,26.1,30.42,NW,326,4.2,19.6,89,0.00,,,0.00,VWS V14.01,2013-03-08 04:48:00,
2013-03-07 23:53:00,29.0,26.2,30.42,NNW,336,11.2,19.6,89,0.00,,,0.00,VWS V14.01,2013-03-08 04:53:00,
2013-03-07 23:58:00,29.1,26.5,30.42,NNW,330,7.0,19.6,90,0.00,,,0.00,VWS V14.01,2013-03-08 04:58:00,